Historyczne dane pomiarowe

Dodano dane terminowe – wersja testowa.

Dane z okresu 1951-2019

Wersja bazy: 1.34 [2019-03-16, lista zmian], aktualizacja planowana na 2019-04-15

Dane meteo z obszaru Polski uzyskane na podstawie danych udostępnionych przez Instytut Meteorologii i Gospodarki Wodnej – Państwowy Instytut Badawczy.

 

Wybierz Datę:    

       

TemperaturaWilgotnośćWiatrCiśnienieOpadyŚniegCzas trwania zjawisk
 Stacja t tx tn tng RH VA  wxwx mslp ppp RRR   cm mm wxwxwxwxwxwxwx
1964-04-17 1.6 4.9 -2.6- 60.5- 0.3 0.7---- 0.0-- 93---------
1964-04-18 2.4 5.6 -0.4- 28.3- 0.7 5.0---- 0.0-- 81---------
1964-04-19 1.3 3.9 -4.4- 48.3- 0.0 11.3---- 0.0-- 71---------
1964-04-20 3.4 5.3 -1.5- 43.0- 6.0 12.3---- 0.0-- 63---------
1964-04-21 4.8 7.0 2.1- 47.8- 6.7 8.7---- 0.0-- 55---------
1964-04-22 -0.2 4.4 -2.3- 88.3- 7.7 9.0---- 0.3-- 47---------
1964-04-23 0.3 2.2 -2.1- 78.3- 6.7 4.3---- 0.3-- 45---------
1964-04-24 -0.6 2.1 -1.4- 95.3- 7.3 3.0---- 6.2-- 45---------
1964-04-25 -3.5 -1.1 -5.0- 98.0- 8.0 12.0---- 33.9-- 48---------
1964-04-26 -6.9 -4.4-10.8- 76.0- 1.3 9.0---- 0.0-- 78---------
1964-04-27 -0.9 1.0 -7.7- 55.8- 0.0 1.7---- 0.0-- 68---------
1964-04-28 1.8 5.4 -2.1- 49.0- 0.0 4.3---- 0.0-- 59---------
1964-04-29 1.7 4.3 -1.4- 67.5- 7.0 6.3---- 2.4-- 54---------
1964-04-30 -1.6 2.0 -3.7- 92.8- 8.0 3.0---- 8.7-- 55---------
1964-05-01 -3.6 -2.3 -4.0- 97.5- 7.3 3.7---- 4.4-- 59---------
1964-05-02 -4.9 -3.0 -5.8- 97.5- 7.7 6.7---- 3.2-- 62---------
1964-05-03 -3.2 -2.6 -6.3- 96.8- 8.0 7.3---- 7.0-- 64---------
1964-05-04 0.2 2.4 -2.7- 90.0- 7.7 10.7---- 0.9-- 70---------
1964-05-05 -2.7 -0.7 -3.6- 98.0- 7.0 3.3---- 16.1-- 66---------
1964-05-06 -3.3 -2.8 -4.5- 97.0- 8.0 7.3---- 11.3-- 75---------
1964-05-07 -0.3 1.7 -3.9- 83.0- 5.3 3.3---- 0.0-- 84---------
1964-05-08 3.0 5.6 -1.5- 74.8- 3.3 2.7---- 0.0-- 78---------
1964-05-09 -0.3 4.1 -2.2- 97.0- 8.0 2.7---- 7.2-- 69---------
1964-05-10 -1.3 -0.4 -2.9- 96.8- 6.0 5.7---- 0.0-- 70---------
1964-05-11 1.0 3.3 -1.6- 97.0- 7.0 3.3---- 2.1-- 67---------
1964-05-12 3.2 5.8 -0.1- 59.8- 0.3 1.7---- 0.0-- 62---------
1964-05-13 7.2 9.9 2.5- 80.3- 4.3 1.0---- 0.0-- 55---------
1964-05-14 6.7 10.3 4.8- 87.5- 7.0 4.0---- 48.0-- 50---------
1964-05-15 -2.8 5.1 -4.4- 97.8- 8.0 9.3---- 15.2-- 48---------
1964-05-16 -3.1 -1.6 -5.9- 97.8- 7.3 6.3---- 1.5-- 60---------
150.7 ms

 

Źródłem pochodzenia danych jest Instytut Meteorologii i Gospodarki Wodnej – Państwowy Instytut Badawczy. Dane Instytutu Meteorologii i Gospodarki Wodnej – Państwowego Instytutu Badawczego zostały przetworzone.

Dane źródłowe można odnaleźć na stronie https://dane.imgw.pl